Aeroporto :
LOGIN :

Iscrizione | Disclaimer

   EN    FR    IT 

 










Sommario :    VFR   VFR Marginale   IFR   IFR Intensivo   IFR Molto Intensivo
Visibilità : 
Base nubi : 
>= 8 km
>= 3000ft
5 / 8 km
1000 / 3000 ft
1500m / 5 km
500 / 1000 ft
800 / 1500m
200 / 500 ft
< 800m
< 200 ft
Simboli :   Temporali  Nebbia  Neve Forte  Precipitazioni Forti  Vento > 20 kt
SIGMETs :   Varie  Temporali  Ghiacco  Turbolenza  Onda orograficha  Ceneri Vulcaniche






- Altitudine del aeroporto : 587 ft
- Codice IATA : XCR


LFOK - Chalons Vatry

ULTIMO METAR :
  • 080930Z AUTO 23004KT 3200 BR BKN003 OVC007 03/03 Q1011 BECMG 9999 NSW BKN007

METARs OBSOLETI :
  • 080900Z AUTO 24005KT 2100 BR BKN003 OVC008 02/02 Q1011 BECMG 3000 BR BKN005
  • 080830Z AUTO 24004KT 2400 BR BKN004 OVC008 02/02 Q1011 BECMG 3000 BR BKN005
  • 080800Z AUTO 26003KT 2000 R28/1400U BR VV/// 02/02 Q1011 BECMG 3000 BR BKN005
  • 080730Z AUTO 26005KT 0750 0650 R10/2400U R28/0700D FG VV/// 02/02 Q1011 BECMG 3000 BR BKN005
  • 080700Z AUTO 24005KT 0800 0650 R10/1400U R28/0900D FG VV/// 02/02 Q1011 BECMG 3000 BR BKN005

TAF TAF LFOK
Valido dal 08 a 06 ore il 09 a 06 ore UTC


080500Z 0806/0906 26005KT 0300 FG VV///
BECMG 0808/0811 3000 BR BKN005
BECMG 0811/0813 9999 NSW BKN007
BECMG 0819/0822 2000 BR OVC003
PROB40 0822/0906 0500 FZFG VV///



MetMap, La meteo Aeronautica in un colpo d'occhio ! - Copyright ORBIFLY Dicembre 2007 - Disclaimer

ORBIFLY MET'MAP TEAM :

Programmazione e sviluppo : Alexandra Zaïnal
Concezione : Baudouin d'Aumeries
Supporto tecnico e logistico : Manuel Goepfert
Aiuto : Marc-Olivier Méhu
Aiuto per la traduzione : Arnaldo La Scala




FONTI E CREDITI :

   NOAA